Newburg, WI (53060)

1:15 PM CDT on October 30, 2014 (GMT -0500)
Newburg Fire Station # 1 | Change Station
CLOSE
Current Station
Personal Weather Station
Location: Newburg, WI
Elevation: 850 ft
Nearby Weather Stations

Elev 850 ft 43.43 °N, 88.05 °W | Updated 18 seconds ago

Partly Cloudy
Partly Cloudy
49.6 °F
Feels Like 48 °F
N
4.0
Wind Variable Wind from North

Today
High -- | Low -- °F
--% Chance of Precip.
Yesterday
High -- | Low -- °F
Precip. -- in
7:24 AM 5:46 PM
Waxing Crescent, 46% visible
Pressure 30.06 in
Visibility 10.0 miles
Clouds Mostly Cloudy 2900 ft
Mostly Cloudy 10000 ft
Windchill 48 °F
Dew Point 37 °F
Humidity 62%
Rainfall 0.00 in
Snow Depth Not available.
UV 2 out of 12
Pollen .10 out of 12
Air Quality Not available.
Flu Activity Not available.
METAR KETB 301755Z AUTO 27010G14KT 10SM BKN029 BKN100 09/00 A3006 RMK AO2

More Conditions Fewer Conditions

Pressure 30.06 in
Visibility 10.0 miles
Clouds Mostly Cloudy 2900 ft
Mostly Cloudy 10000 ft
Windchill 48 °F
Dew Point 37 °F
Humidity 62%
Rainfall 0.00 in
Snow Depth Not available.
UV 2 out of 12
Pollen .10 out of 12
Air Quality Not available.
Flu Activity Not available.
METAR KETB 301755Z AUTO 27010G14KT 10SM BKN029 BKN100 09/00 A3006 RMK AO2

More Conditions Fewer Conditions

10-Day Weather Forecast

Almanac

Astronomy

Oct. 30, 2014 Rise Set
Actual Time
Civil Twilight
Nautical Twilight
Astronomical Twilight
Moon
Length of Visible Light
Length of Day
Tomorrow will be .
, % of the Moon is Illuminated

Today's Extremes

State Highs State Lows

Community

WunderPhotos

Upload Photos

1,766,417 photos uploaded!

WunderBlogs® & News

Nearby

Air Quality

  Air Quality AQ Index Pollutant
Not available.

Snow Depth

Station Depth Elevation

Earthquake Activity

City Distance Mag. Time & Date
Minimum magnitude displayed is 2.5.

Coastal Water Temperatures

Place Temperature

Nearby Weather Stations